sensor_id;sensor_type;location;lat;lon;timestamp;P1;durP1;ratioP1;P2;durP2;ratioP2
18170;SDS011;9210;48.358;10.902;2022-12-29T00:01:27;3.80;;;1.90;;
18170;SDS011;9210;48.358;10.902;2022-12-29T00:03:56;2.67;;;1.70;;
18170;SDS011;9210;48.358;10.902;2022-12-29T00:06:25;3.33;;;1.67;;
18170;SDS011;9210;48.358;10.902;2022-12-29T00:08:54;3.13;;;1.80;;
18170;SDS011;9210;48.358;10.902;2022-12-29T00:11:23;3.00;;;1.63;;
18170;SDS011;9210;48.358;10.902;2022-12-29T00:13:52;3.00;;;1.67;;
18170;SDS011;9210;48.358;10.902;2022-12-29T00:16:40;2.80;;;1.73;;
18170;SDS011;9210;48.358;10.902;2022-12-29T00:19:09;2.70;;;1.60;;
18170;SDS011;9210;48.358;10.902;2022-12-29T00:21:59;3.20;;;1.70;;
18170;SDS011;9210;48.358;10.902;2022-12-29T00:24:45;2.97;;;1.60;;
18170;SDS011;9210;48.358;10.902;2022-12-29T00:27:31;3.47;;;1.70;;
18170;SDS011;9210;48.358;10.902;2022-12-29T00:30:17;3.63;;;1.70;;
18170;SDS011;9210;48.358;10.902;2022-12-29T00:33:08;4.10;;;1.90;;
18170;SDS011;9210;48.358;10.902;2022-12-29T00:35:55;2.33;;;1.60;;
18170;SDS011;9210;48.358;10.902;2022-12-29T00:38:27;2.53;;;1.70;;
18170;SDS011;9210;48.358;10.902;2022-12-29T00:41:14;2.93;;;1.80;;
18170;SDS011;9210;48.358;10.902;2022-12-29T00:44:00;3.77;;;1.70;;
18170;SDS011;9210;48.358;10.902;2022-12-29T00:46:36;3.27;;;1.60;;
18170;SDS011;9210;48.358;10.902;2022-12-29T00:49:05;4.57;;;1.47;;
18170;SDS011;9210;48.358;10.902;2022-12-29T00:51:52;4.93;;;1.60;;
18170;SDS011;9210;48.358;10.902;2022-12-29T00:54:22;3.27;;;1.80;;
18170;SDS011;9210;48.358;10.902;2022-12-29T00:56:51;2.30;;;1.47;;
18170;SDS011;9210;48.358;10.902;2022-12-29T00:59:20;2.10;;;1.40;;
18170;SDS011;9210;48.358;10.902;2022-12-29T01:01:50;3.70;;;1.53;;
18170;SDS011;9210;48.358;10.902;2022-12-29T01:04:20;3.60;;;1.47;;
18170;SDS011;9210;48.358;10.902;2022-12-29T01:06:49;2.83;;;1.70;;
18170;SDS011;9210;48.358;10.902;2022-12-29T01:09:18;3.90;;;1.77;;
18170;SDS011;9210;48.358;10.902;2022-12-29T01:12:06;2.93;;;1.53;;
18170;SDS011;9210;48.358;10.902;2022-12-29T01:14:36;5.60;;;1.80;;
18170;SDS011;9210;48.358;10.902;2022-12-29T01:17:04;7.57;;;1.70;;
18170;SDS011;9210;48.358;10.902;2022-12-29T01:19:32;3.10;;;1.57;;
18170;SDS011;9210;48.358;10.902;2022-12-29T01:22:01;3.60;;;1.40;;
18170;SDS011;9210;48.358;10.902;2022-12-29T01:24:29;3.13;;;1.30;;
18170;SDS011;9210;48.358;10.902;2022-12-29T01:26:58;3.10;;;1.27;;
18170;SDS011;9210;48.358;10.902;2022-12-29T01:29:28;2.43;;;1.47;;
18170;SDS011;9210;48.358;10.902;2022-12-29T01:31:56;2.33;;;1.27;;
18170;SDS011;9210;48.358;10.902;2022-12-29T01:34:24;2.63;;;1.20;;
18170;SDS011;9210;48.358;10.902;2022-12-29T01:36:53;3.80;;;1.50;;
18170;SDS011;9210;48.358;10.902;2022-12-29T01:39:21;2.30;;;1.20;;
18170;SDS011;9210;48.358;10.902;2022-12-29T01:41:50;3.20;;;1.20;;
18170;SDS011;9210;48.358;10.902;2022-12-29T01:47:07;3.50;;;1.40;;
18170;SDS011;9210;48.358;10.902;2022-12-29T01:49:36;3.23;;;1.30;;
18170;SDS011;9210;48.358;10.902;2022-12-29T01:52:06;4.70;;;1.30;;
18170;SDS011;9210;48.358;10.902;2022-12-29T01:54:35;1.90;;;1.07;;
18170;SDS011;9210;48.358;10.902;2022-12-29T01:57:07;3.50;;;1.17;;
18170;SDS011;9210;48.358;10.902;2022-12-29T01:59:38;2.73;;;1.20;;
18170;SDS011;9210;48.358;10.902;2022-12-29T02:02:10;2.73;;;1.20;;
18170;SDS011;9210;48.358;10.902;2022-12-29T02:04:40;2.20;;;1.00;;
18170;SDS011;9210;48.358;10.902;2022-12-29T02:07:17;3.50;;;1.20;;
18170;SDS011;9210;48.358;10.902;2022-12-29T02:09:46;2.47;;;1.20;;
18170;SDS011;9210;48.358;10.902;2022-12-29T02:12:15;1.40;;;1.10;;
18170;SDS011;9210;48.358;10.902;2022-12-29T02:14:44;5.07;;;1.10;;
18170;SDS011;9210;48.358;10.902;2022-12-29T02:17:17;1.83;;;1.20;;
18170;SDS011;9210;48.358;10.902;2022-12-29T02:22:40;2.63;;;1.20;;
18170;SDS011;9210;48.358;10.902;2022-12-29T02:25:22;2.10;;;1.17;;
18170;SDS011;9210;48.358;10.902;2022-12-29T02:27:58;2.20;;;1.00;;
18170;SDS011;9210;48.358;10.902;2022-12-29T02:30:44;2.87;;;1.10;;
18170;SDS011;9210;48.358;10.902;2022-12-29T02:33:20;2.63;;;1.20;;
18170;SDS011;9210;48.358;10.902;2022-12-29T02:35:52;1.97;;;1.10;;
18170;SDS011;9210;48.358;10.902;2022-12-29T02:38:25;2.43;;;1.33;;
18170;SDS011;9210;48.358;10.902;2022-12-29T02:40:55;1.67;;;1.00;;
18170;SDS011;9210;48.358;10.902;2022-12-29T02:43:26;2.37;;;1.20;;
18170;SDS011;9210;48.358;10.902;2022-12-29T02:46:03;2.10;;;1.10;;
18170;SDS011;9210;48.358;10.902;2022-12-29T02:48:34;1.63;;;1.00;;
18170;SDS011;9210;48.358;10.902;2022-12-29T02:51:07;1.47;;;1.27;;
18170;SDS011;9210;48.358;10.902;2022-12-29T02:57:11;2.63;;;1.00;;
18170;SDS011;9210;48.358;10.902;2022-12-29T02:59:40;3.43;;;1.03;;
18170;SDS011;9210;48.358;10.902;2022-12-29T03:02:32;3.77;;;0.97;;
18170;SDS011;9210;48.358;10.902;2022-12-29T03:05:13;4.27;;;1.00;;
18170;SDS011;9210;48.358;10.902;2022-12-29T03:07:45;4.70;;;1.07;;
18170;SDS011;9210;48.358;10.902;2022-12-29T03:10:18;3.30;;;1.10;;
18170;SDS011;9210;48.358;10.902;2022-12-29T03:12:48;2.47;;;0.90;;
18170;SDS011;9210;48.358;10.902;2022-12-29T03:15:39;1.50;;;1.10;;
18170;SDS011;9210;48.358;10.902;2022-12-29T03:21:17;1.30;;;0.90;;
18170;SDS011;9210;48.358;10.902;2022-12-29T03:23:47;3.13;;;1.10;;
18170;SDS011;9210;48.358;10.902;2022-12-29T03:26:17;2.37;;;1.13;;
18170;SDS011;9210;48.358;10.902;2022-12-29T03:28:50;1.47;;;1.03;;
18170;SDS011;9210;48.358;10.902;2022-12-29T03:31:23;1.33;;;0.87;;
18170;SDS011;9210;48.358;10.902;2022-12-29T03:33:53;1.90;;;0.90;;
18170;SDS011;9210;48.358;10.902;2022-12-29T03:36:26;2.73;;;1.00;;
18170;SDS011;9210;48.358;10.902;2022-12-29T03:38:57;2.93;;;1.13;;
18170;SDS011;9210;48.358;10.902;2022-12-29T03:41:28;2.30;;;0.90;;
18170;SDS011;9210;48.358;10.902;2022-12-29T03:44:00;3.90;;;1.30;;
18170;SDS011;9210;48.358;10.902;2022-12-29T03:46:30;1.40;;;0.90;;
18170;SDS011;9210;48.358;10.902;2022-12-29T03:48:58;1.13;;;0.90;;
18170;SDS011;9210;48.358;10.902;2022-12-29T03:51:28;2.47;;;0.93;;
18170;SDS011;9210;48.358;10.902;2022-12-29T03:53:57;2.83;;;1.07;;
18170;SDS011;9210;48.358;10.902;2022-12-29T03:56:26;5.23;;;1.20;;
18170;SDS011;9210;48.358;10.902;2022-12-29T03:58:54;2.07;;;0.97;;
18170;SDS011;9210;48.358;10.902;2022-12-29T04:01:29;5.53;;;1.50;;
18170;SDS011;9210;48.358;10.902;2022-12-29T04:03:58;2.80;;;1.03;;
18170;SDS011;9210;48.358;10.902;2022-12-29T04:06:26;3.13;;;1.50;;
18170;SDS011;9210;48.358;10.902;2022-12-29T04:09:05;1.80;;;1.10;;
18170;SDS011;9210;48.358;10.902;2022-12-29T04:11:39;2.10;;;1.27;;
18170;SDS011;9210;48.358;10.902;2022-12-29T04:14:07;2.97;;;1.00;;
18170;SDS011;9210;48.358;10.902;2022-12-29T04:16:36;2.37;;;1.10;;
18170;SDS011;9210;48.358;10.902;2022-12-29T04:19:07;9.07;;;1.20;;
18170;SDS011;9210;48.358;10.902;2022-12-29T04:21:36;5.07;;;1.10;;
18170;SDS011;9210;48.358;10.902;2022-12-29T04:24:06;1.87;;;1.00;;
18170;SDS011;9210;48.358;10.902;2022-12-29T04:26:39;1.80;;;1.30;;
18170;SDS011;9210;48.358;10.902;2022-12-29T04:29:30;5.17;;;1.10;;
18170;SDS011;9210;48.358;10.902;2022-12-29T04:32:09;2.40;;;1.10;;
18170;SDS011;9210;48.358;10.902;2022-12-29T04:34:43;2.40;;;1.00;;
18170;SDS011;9210;48.358;10.902;2022-12-29T04:37:11;1.90;;;1.00;;
18170;SDS011;9210;48.358;10.902;2022-12-29T04:39:42;1.80;;;1.00;;
18170;SDS011;9210;48.358;10.902;2022-12-29T04:42:10;2.70;;;1.20;;
18170;SDS011;9210;48.358;10.902;2022-12-29T04:44:39;2.00;;;0.90;;
18170;SDS011;9210;48.358;10.902;2022-12-29T04:47:32;2.60;;;1.00;;
18170;SDS011;9210;48.358;10.902;2022-12-29T04:50:20;1.90;;;0.87;;
18170;SDS011;9210;48.358;10.902;2022-12-29T04:52:59;2.23;;;1.17;;
18170;SDS011;9210;48.358;10.902;2022-12-29T04:55:29;1.67;;;1.00;;
18170;SDS011;9210;48.358;10.902;2022-12-29T04:57:58;2.83;;;1.03;;
18170;SDS011;9210;48.358;10.902;2022-12-29T05:00:29;3.10;;;0.97;;
18170;SDS011;9210;48.358;10.902;2022-12-29T05:02:57;1.27;;;0.80;;
18170;SDS011;9210;48.358;10.902;2022-12-29T05:05:26;1.53;;;0.87;;
18170;SDS011;9210;48.358;10.902;2022-12-29T05:07:56;2.43;;;1.07;;
18170;SDS011;9210;48.358;10.902;2022-12-29T05:10:26;1.83;;;0.90;;
18170;SDS011;9210;48.358;10.902;2022-12-29T05:12:59;1.87;;;1.00;;
18170;SDS011;9210;48.358;10.902;2022-12-29T05:15:27;1.40;;;0.90;;
18170;SDS011;9210;48.358;10.902;2022-12-29T05:17:57;2.43;;;1.20;;
18170;SDS011;9210;48.358;10.902;2022-12-29T05:20:25;3.77;;;1.00;;
18170;SDS011;9210;48.358;10.902;2022-12-29T05:22:55;3.57;;;1.10;;
18170;SDS011;9210;48.358;10.902;2022-12-29T05:25:24;3.63;;;1.10;;
18170;SDS011;9210;48.358;10.902;2022-12-29T05:28:02;4.17;;;1.37;;
18170;SDS011;9210;48.358;10.902;2022-12-29T05:30:43;2.90;;;1.00;;
18170;SDS011;9210;48.358;10.902;2022-12-29T05:33:11;1.77;;;1.00;;
18170;SDS011;9210;48.358;10.902;2022-12-29T05:35:40;2.63;;;1.20;;
18170;SDS011;9210;48.358;10.902;2022-12-29T05:38:09;4.10;;;1.10;;
18170;SDS011;9210;48.358;10.902;2022-12-29T05:40:37;1.73;;;0.90;;
18170;SDS011;9210;48.358;10.902;2022-12-29T05:43:18;1.40;;;1.00;;
18170;SDS011;9210;48.358;10.902;2022-12-29T05:46:05;1.60;;;0.90;;
18170;SDS011;9210;48.358;10.902;2022-12-29T05:48:44;2.40;;;0.83;;
18170;SDS011;9210;48.358;10.902;2022-12-29T05:51:22;2.80;;;0.97;;
18170;SDS011;9210;48.358;10.902;2022-12-29T05:53:52;2.17;;;1.10;;
18170;SDS011;9210;48.358;10.902;2022-12-29T05:56:21;1.30;;;1.00;;
18170;SDS011;9210;48.358;10.902;2022-12-29T05:58:56;3.40;;;1.00;;
18170;SDS011;9210;48.358;10.902;2022-12-29T06:01:26;3.90;;;1.17;;
18170;SDS011;9210;48.358;10.902;2022-12-29T06:03:55;2.70;;;0.90;;
18170;SDS011;9210;48.358;10.902;2022-12-29T06:06:24;2.90;;;1.00;;
18170;SDS011;9210;48.358;10.902;2022-12-29T06:08:53;2.30;;;1.00;;
18170;SDS011;9210;48.358;10.902;2022-12-29T06:11:22;2.73;;;1.10;;
18170;SDS011;9210;48.358;10.902;2022-12-29T06:13:54;2.90;;;0.90;;
18170;SDS011;9210;48.358;10.902;2022-12-29T06:16:24;4.67;;;1.00;;
18170;SDS011;9210;48.358;10.902;2022-12-29T06:18:56;2.30;;;1.10;;
18170;SDS011;9210;48.358;10.902;2022-12-29T06:21:25;1.33;;;1.03;;
18170;SDS011;9210;48.358;10.902;2022-12-29T06:23:54;1.90;;;1.07;;
18170;SDS011;9210;48.358;10.902;2022-12-29T06:26:22;3.87;;;1.00;;
18170;SDS011;9210;48.358;10.902;2022-12-29T06:28:50;4.87;;;1.20;;
18170;SDS011;9210;48.358;10.902;2022-12-29T06:31:19;4.13;;;1.47;;
18170;SDS011;9210;48.358;10.902;2022-12-29T06:33:49;2.77;;;1.17;;
18170;SDS011;9210;48.358;10.902;2022-12-29T06:36:17;2.63;;;1.10;;
18170;SDS011;9210;48.358;10.902;2022-12-29T06:38:46;3.83;;;1.77;;
18170;SDS011;9210;48.358;10.902;2022-12-29T06:41:14;3.70;;;1.40;;
18170;SDS011;9210;48.358;10.902;2022-12-29T06:44:18;3.97;;;1.40;;
18170;SDS011;9210;48.358;10.902;2022-12-29T06:46:54;3.33;;;1.20;;
18170;SDS011;9210;48.358;10.902;2022-12-29T06:49:25;3.13;;;1.70;;
18170;SDS011;9210;48.358;10.902;2022-12-29T06:51:53;2.03;;;1.30;;
18170;SDS011;9210;48.358;10.902;2022-12-29T06:54:21;2.23;;;1.30;;
18170;SDS011;9210;48.358;10.902;2022-12-29T06:56:50;4.30;;;1.57;;
18170;SDS011;9210;48.358;10.902;2022-12-29T06:59:19;4.10;;;1.50;;
18170;SDS011;9210;48.358;10.902;2022-12-29T07:01:48;3.83;;;1.20;;
18170;SDS011;9210;48.358;10.902;2022-12-29T07:04:16;1.93;;;1.20;;
18170;SDS011;9210;48.358;10.902;2022-12-29T07:06:46;4.97;;;1.63;;
18170;SDS011;9210;48.358;10.902;2022-12-29T07:09:15;3.70;;;1.40;;
18170;SDS011;9210;48.358;10.902;2022-12-29T07:11:43;2.37;;;1.40;;
18170;SDS011;9210;48.358;10.902;2022-12-29T07:14:11;2.93;;;1.40;;
18170;SDS011;9210;48.358;10.902;2022-12-29T07:16:40;2.20;;;1.60;;
18170;SDS011;9210;48.358;10.902;2022-12-29T07:19:08;2.67;;;1.33;;
18170;SDS011;9210;48.358;10.902;2022-12-29T07:21:37;2.43;;;1.60;;
18170;SDS011;9210;48.358;10.902;2022-12-29T07:24:14;3.17;;;1.23;;
18170;SDS011;9210;48.358;10.902;2022-12-29T07:26:43;6.73;;;1.70;;
18170;SDS011;9210;48.358;10.902;2022-12-29T07:29:11;4.87;;;1.73;;
18170;SDS011;9210;48.358;10.902;2022-12-29T07:31:39;4.50;;;1.60;;
18170;SDS011;9210;48.358;10.902;2022-12-29T07:34:08;3.40;;;1.30;;
18170;SDS011;9210;48.358;10.902;2022-12-29T07:36:36;3.53;;;1.60;;
18170;SDS011;9210;48.358;10.902;2022-12-29T07:39:05;4.80;;;1.43;;
18170;SDS011;9210;48.358;10.902;2022-12-29T07:41:34;2.73;;;1.40;;
18170;SDS011;9210;48.358;10.902;2022-12-29T07:44:03;4.13;;;1.40;;
18170;SDS011;9210;48.358;10.902;2022-12-29T07:46:51;7.27;;;1.40;;
18170;SDS011;9210;48.358;10.902;2022-12-29T07:49:24;2.40;;;1.40;;
18170;SDS011;9210;48.358;10.902;2022-12-29T07:51:52;1.93;;;1.27;;
18170;SDS011;9210;48.358;10.902;2022-12-29T07:54:21;4.00;;;1.30;;
18170;SDS011;9210;48.358;10.902;2022-12-29T07:56:51;5.07;;;1.50;;
18170;SDS011;9210;48.358;10.902;2022-12-29T07:59:19;4.80;;;1.30;;
18170;SDS011;9210;48.358;10.902;2022-12-29T08:01:49;4.50;;;1.30;;
18170;SDS011;9210;48.358;10.902;2022-12-29T08:04:17;4.23;;;1.50;;
18170;SDS011;9210;48.358;10.902;2022-12-29T08:06:46;5.30;;;1.63;;
18170;SDS011;9210;48.358;10.902;2022-12-29T08:09:14;2.50;;;1.20;;
18170;SDS011;9210;48.358;10.902;2022-12-29T08:11:48;3.50;;;1.40;;
18170;SDS011;9210;48.358;10.902;2022-12-29T08:14:18;4.20;;;1.37;;
18170;SDS011;9210;48.358;10.902;2022-12-29T08:16:46;3.50;;;1.30;;
18170;SDS011;9210;48.358;10.902;2022-12-29T08:19:15;3.97;;;1.60;;
18170;SDS011;9210;48.358;10.902;2022-12-29T08:21:43;1.90;;;1.33;;
18170;SDS011;9210;48.358;10.902;2022-12-29T08:24:12;5.33;;;1.53;;
18170;SDS011;9210;48.358;10.902;2022-12-29T08:26:40;2.60;;;1.50;;
18170;SDS011;9210;48.358;10.902;2022-12-29T08:29:08;3.27;;;1.30;;
18170;SDS011;9210;48.358;10.902;2022-12-29T08:31:38;4.50;;;1.43;;
18170;SDS011;9210;48.358;10.902;2022-12-29T08:34:07;5.13;;;1.50;;
18170;SDS011;9210;48.358;10.902;2022-12-29T08:36:35;2.77;;;1.40;;
18170;SDS011;9210;48.358;10.902;2022-12-29T08:39:04;2.57;;;1.40;;
18170;SDS011;9210;48.358;10.902;2022-12-29T08:41:33;3.43;;;1.30;;
18170;SDS011;9210;48.358;10.902;2022-12-29T08:44:01;2.40;;;1.40;;
18170;SDS011;9210;48.358;10.902;2022-12-29T08:46:30;3.57;;;1.40;;
18170;SDS011;9210;48.358;10.902;2022-12-29T08:49:00;3.80;;;1.57;;
18170;SDS011;9210;48.358;10.902;2022-12-29T08:51:28;3.37;;;1.70;;
18170;SDS011;9210;48.358;10.902;2022-12-29T08:53:56;3.20;;;1.53;;
18170;SDS011;9210;48.358;10.902;2022-12-29T08:56:25;4.83;;;1.30;;
18170;SDS011;9210;48.358;10.902;2022-12-29T08:58:55;4.27;;;1.63;;
18170;SDS011;9210;48.358;10.902;2022-12-29T09:01:27;5.63;;;1.70;;
18170;SDS011;9210;48.358;10.902;2022-12-29T09:03:56;5.63;;;1.50;;
18170;SDS011;9210;48.358;10.902;2022-12-29T09:06:44;2.47;;;1.30;;
18170;SDS011;9210;48.358;10.902;2022-12-29T09:09:13;4.83;;;1.40;;
18170;SDS011;9210;48.358;10.902;2022-12-29T09:11:42;5.13;;;1.60;;
18170;SDS011;9210;48.358;10.902;2022-12-29T09:14:11;2.83;;;1.43;;
18170;SDS011;9210;48.358;10.902;2022-12-29T09:16:39;3.10;;;1.67;;
18170;SDS011;9210;48.358;10.902;2022-12-29T09:19:26;4.77;;;1.53;;
18170;SDS011;9210;48.358;10.902;2022-12-29T09:21:55;3.20;;;1.37;;
18170;SDS011;9210;48.358;10.902;2022-12-29T09:24:24;3.37;;;1.60;;
18170;SDS011;9210;48.358;10.902;2022-12-29T09:26:52;2.80;;;1.20;;
18170;SDS011;9210;48.358;10.902;2022-12-29T09:29:21;3.60;;;1.70;;
18170;SDS011;9210;48.358;10.902;2022-12-29T09:31:49;5.27;;;1.60;;
18170;SDS011;9210;48.358;10.902;2022-12-29T09:34:18;4.43;;;1.37;;
18170;SDS011;9210;48.358;10.902;2022-12-29T09:36:46;3.40;;;1.50;;
18170;SDS011;9210;48.358;10.902;2022-12-29T09:39:16;2.77;;;1.50;;
18170;SDS011;9210;48.358;10.902;2022-12-29T09:41:49;4.00;;;1.50;;
18170;SDS011;9210;48.358;10.902;2022-12-29T09:44:22;3.03;;;1.40;;
18170;SDS011;9210;48.358;10.902;2022-12-29T09:46:53;3.23;;;1.27;;
18170;SDS011;9210;48.358;10.902;2022-12-29T09:49:24;4.10;;;1.53;;
18170;SDS011;9210;48.358;10.902;2022-12-29T09:51:55;4.20;;;1.53;;
18170;SDS011;9210;48.358;10.902;2022-12-29T09:54:30;2.83;;;1.40;;
18170;SDS011;9210;48.358;10.902;2022-12-29T09:57:02;1.97;;;1.20;;
18170;SDS011;9210;48.358;10.902;2022-12-29T09:59:35;5.43;;;1.20;;
18170;SDS011;9210;48.358;10.902;2022-12-29T10:02:12;3.03;;;1.10;;
18170;SDS011;9210;48.358;10.902;2022-12-29T10:04:41;4.73;;;1.60;;
18170;SDS011;9210;48.358;10.902;2022-12-29T10:07:11;1.97;;;1.17;;
18170;SDS011;9210;48.358;10.902;2022-12-29T10:09:59;4.67;;;1.20;;
18170;SDS011;9210;48.358;10.902;2022-12-29T10:12:30;2.90;;;1.00;;
18170;SDS011;9210;48.358;10.902;2022-12-29T10:15:08;2.60;;;1.13;;
18170;SDS011;9210;48.358;10.902;2022-12-29T10:17:39;3.17;;;1.07;;
18170;SDS011;9210;48.358;10.902;2022-12-29T10:20:23;6.17;;;1.37;;
18170;SDS011;9210;48.358;10.902;2022-12-29T10:23:03;2.80;;;1.20;;
18170;SDS011;9210;48.358;10.902;2022-12-29T10:25:37;2.67;;;1.30;;
18170;SDS011;9210;48.358;10.902;2022-12-29T10:28:06;1.40;;;1.00;;
18170;SDS011;9210;48.358;10.902;2022-12-29T10:30:38;3.20;;;1.30;;
18170;SDS011;9210;48.358;10.902;2022-12-29T10:33:08;2.07;;;0.97;;
18170;SDS011;9210;48.358;10.902;2022-12-29T10:35:38;2.73;;;1.27;;
18170;SDS011;9210;48.358;10.902;2022-12-29T10:38:11;2.50;;;0.93;;
18170;SDS011;9210;48.358;10.902;2022-12-29T10:40:43;1.77;;;1.20;;
18170;SDS011;9210;48.358;10.902;2022-12-29T10:43:18;4.00;;;1.37;;
18170;SDS011;9210;48.358;10.902;2022-12-29T10:45:48;5.67;;;1.50;;
18170;SDS011;9210;48.358;10.902;2022-12-29T10:48:19;4.07;;;1.37;;
18170;SDS011;9210;48.358;10.902;2022-12-29T10:50:56;4.97;;;1.20;;
18170;SDS011;9210;48.358;10.902;2022-12-29T10:53:30;4.30;;;1.33;;
18170;SDS011;9210;48.358;10.902;2022-12-29T10:56:00;4.23;;;1.40;;
18170;SDS011;9210;48.358;10.902;2022-12-29T10:58:30;3.47;;;1.20;;
18170;SDS011;9210;48.358;10.902;2022-12-29T11:00:59;4.23;;;1.90;;
18170;SDS011;9210;48.358;10.902;2022-12-29T11:03:37;3.00;;;1.50;;
18170;SDS011;9210;48.358;10.902;2022-12-29T11:06:10;4.33;;;1.50;;
18170;SDS011;9210;48.358;10.902;2022-12-29T11:08:41;2.97;;;1.33;;
18170;SDS011;9210;48.358;10.902;2022-12-29T11:11:14;2.93;;;1.20;;
18170;SDS011;9210;48.358;10.902;2022-12-29T11:13:54;2.30;;;1.20;;
18170;SDS011;9210;48.358;10.902;2022-12-29T11:16:30;2.80;;;1.20;;
18170;SDS011;9210;48.358;10.902;2022-12-29T11:18:59;4.07;;;1.33;;
18170;SDS011;9210;48.358;10.902;2022-12-29T11:21:31;2.20;;;0.90;;
18170;SDS011;9210;48.358;10.902;2022-12-29T11:24:00;2.27;;;1.10;;
18170;SDS011;9210;48.358;10.902;2022-12-29T11:26:31;1.30;;;0.90;;
18170;SDS011;9210;48.358;10.902;2022-12-29T11:29:09;2.67;;;1.10;;
18170;SDS011;9210;48.358;10.902;2022-12-29T11:31:40;2.30;;;1.00;;
18170;SDS011;9210;48.358;10.902;2022-12-29T11:34:14;5.93;;;1.50;;
18170;SDS011;9210;48.358;10.902;2022-12-29T11:36:44;2.20;;;1.10;;
18170;SDS011;9210;48.358;10.902;2022-12-29T11:39:24;3.43;;;1.00;;
18170;SDS011;9210;48.358;10.902;2022-12-29T11:41:54;2.87;;;1.00;;
18170;SDS011;9210;48.358;10.902;2022-12-29T11:44:23;4.20;;;1.50;;
18170;SDS011;9210;48.358;10.902;2022-12-29T11:46:54;2.73;;;1.03;;
18170;SDS011;9210;48.358;10.902;2022-12-29T11:49:23;7.30;;;1.60;;
18170;SDS011;9210;48.358;10.902;2022-12-29T11:51:52;2.17;;;1.07;;
18170;SDS011;9210;48.358;10.902;2022-12-29T11:54:23;2.60;;;0.93;;
18170;SDS011;9210;48.358;10.902;2022-12-29T11:56:54;1.97;;;0.93;;
18170;SDS011;9210;48.358;10.902;2022-12-29T11:59:34;2.63;;;1.00;;
18170;SDS011;9210;48.358;10.902;2022-12-29T12:05:20;3.07;;;1.40;;
18170;SDS011;9210;48.358;10.902;2022-12-29T12:07:50;2.07;;;1.03;;
18170;SDS011;9210;48.358;10.902;2022-12-29T12:10:21;4.00;;;1.13;;
18170;SDS011;9210;48.358;10.902;2022-12-29T12:12:53;2.27;;;1.10;;
18170;SDS011;9210;48.358;10.902;2022-12-29T12:15:24;3.77;;;1.00;;
18170;SDS011;9210;48.358;10.902;2022-12-29T12:17:57;2.00;;;1.00;;
18170;SDS011;9210;48.358;10.902;2022-12-29T12:20:36;2.27;;;0.90;;
18170;SDS011;9210;48.358;10.902;2022-12-29T12:23:16;2.13;;;1.00;;
18170;SDS011;9210;48.358;10.902;2022-12-29T12:25:48;4.03;;;1.07;;
18170;SDS011;9210;48.358;10.902;2022-12-29T12:28:20;2.50;;;1.00;;
18170;SDS011;9210;48.358;10.902;2022-12-29T12:30:50;2.53;;;1.10;;
18170;SDS011;9210;48.358;10.902;2022-12-29T12:33:22;2.23;;;1.00;;
18170;SDS011;9210;48.358;10.902;2022-12-29T12:35:56;3.07;;;0.80;;
18170;SDS011;9210;48.358;10.902;2022-12-29T12:38:28;2.83;;;1.00;;
18170;SDS011;9210;48.358;10.902;2022-12-29T12:41:00;2.60;;;1.10;;
18170;SDS011;9210;48.358;10.902;2022-12-29T12:43:36;3.33;;;0.80;;
18170;SDS011;9210;48.358;10.902;2022-12-29T12:49:01;2.10;;;1.10;;
18170;SDS011;9210;48.358;10.902;2022-12-29T12:51:36;4.23;;;1.50;;
18170;SDS011;9210;48.358;10.902;2022-12-29T12:54:19;3.00;;;1.00;;
18170;SDS011;9210;48.358;10.902;2022-12-29T12:56:55;2.20;;;1.10;;
18170;SDS011;9210;48.358;10.902;2022-12-29T12:59:32;2.47;;;0.93;;
18170;SDS011;9210;48.358;10.902;2022-12-29T13:02:08;2.60;;;0.90;;
18170;SDS011;9210;48.358;10.902;2022-12-29T13:04:52;2.57;;;1.10;;
18170;SDS011;9210;48.358;10.902;2022-12-29T13:07:27;2.90;;;1.10;;
18170;SDS011;9210;48.358;10.902;2022-12-29T13:12:41;2.00;;;0.90;;
18170;SDS011;9210;48.358;10.902;2022-12-29T13:15:18;3.83;;;1.17;;
18170;SDS011;9210;48.358;10.902;2022-12-29T13:17:50;2.80;;;0.93;;
18170;SDS011;9210;48.358;10.902;2022-12-29T13:20:25;2.90;;;1.10;;
18170;SDS011;9210;48.358;10.902;2022-12-29T13:22:57;4.07;;;1.07;;
18170;SDS011;9210;48.358;10.902;2022-12-29T13:25:27;3.17;;;1.33;;
18170;SDS011;9210;48.358;10.902;2022-12-29T13:28:00;5.63;;;1.23;;
18170;SDS011;9210;48.358;10.902;2022-12-29T13:30:32;2.07;;;1.00;;
18170;SDS011;9210;48.358;10.902;2022-12-29T13:33:03;3.30;;;1.10;;
18170;SDS011;9210;48.358;10.902;2022-12-29T13:35:46;1.90;;;0.80;;
18170;SDS011;9210;48.358;10.902;2022-12-29T13:38:18;4.27;;;1.10;;
18170;SDS011;9210;48.358;10.902;2022-12-29T13:40:49;4.17;;;0.90;;
18170;SDS011;9210;48.358;10.902;2022-12-29T13:43:18;2.17;;;1.00;;
18170;SDS011;9210;48.358;10.902;2022-12-29T13:45:52;2.23;;;0.70;;
18170;SDS011;9210;48.358;10.902;2022-12-29T13:48:22;2.53;;;0.87;;
18170;SDS011;9210;48.358;10.902;2022-12-29T13:50:53;2.10;;;0.80;;
18170;SDS011;9210;48.358;10.902;2022-12-29T13:53:25;1.97;;;0.93;;
18170;SDS011;9210;48.358;10.902;2022-12-29T13:55:58;2.03;;;1.07;;
18170;SDS011;9210;48.358;10.902;2022-12-29T13:58:31;3.43;;;1.13;;
18170;SDS011;9210;48.358;10.902;2022-12-29T14:01:03;3.93;;;1.07;;
18170;SDS011;9210;48.358;10.902;2022-12-29T14:03:43;1.70;;;0.90;;
18170;SDS011;9210;48.358;10.902;2022-12-29T14:06:15;1.87;;;1.00;;
18170;SDS011;9210;48.358;10.902;2022-12-29T14:08:44;3.30;;;0.80;;
18170;SDS011;9210;48.358;10.902;2022-12-29T14:11:14;1.93;;;1.10;;
18170;SDS011;9210;48.358;10.902;2022-12-29T14:13:43;2.63;;;1.00;;
18170;SDS011;9210;48.358;10.902;2022-12-29T14:16:24;1.53;;;1.10;;
18170;SDS011;9210;48.358;10.902;2022-12-29T14:18:53;2.47;;;1.10;;
18170;SDS011;9210;48.358;10.902;2022-12-29T14:21:24;1.37;;;0.90;;
18170;SDS011;9210;48.358;10.902;2022-12-29T14:24:02;4.53;;;0.90;;
18170;SDS011;9210;48.358;10.902;2022-12-29T14:26:49;2.27;;;1.00;;
18170;SDS011;9210;48.358;10.902;2022-12-29T14:32:19;4.03;;;1.00;;
18170;SDS011;9210;48.358;10.902;2022-12-29T14:38:04;3.63;;;1.40;;
18170;SDS011;9210;48.358;10.902;2022-12-29T14:40:32;2.27;;;1.10;;
18170;SDS011;9210;48.358;10.902;2022-12-29T14:43:01;2.47;;;1.10;;
18170;SDS011;9210;48.358;10.902;2022-12-29T14:45:39;6.13;;;1.13;;
18170;SDS011;9210;48.358;10.902;2022-12-29T14:48:25;2.70;;;1.10;;
18170;SDS011;9210;48.358;10.902;2022-12-29T14:50:57;2.77;;;1.07;;
18170;SDS011;9210;48.358;10.902;2022-12-29T14:53:42;2.43;;;1.00;;
18170;SDS011;9210;48.358;10.902;2022-12-29T14:56:10;3.40;;;1.20;;
18170;SDS011;9210;48.358;10.902;2022-12-29T14:58:42;2.67;;;1.20;;
18170;SDS011;9210;48.358;10.902;2022-12-29T15:01:19;1.83;;;0.90;;
18170;SDS011;9210;48.358;10.902;2022-12-29T15:03:50;4.60;;;1.10;;
18170;SDS011;9210;48.358;10.902;2022-12-29T15:06:20;6.23;;;1.40;;
18170;SDS011;9210;48.358;10.902;2022-12-29T15:08:51;3.17;;;1.10;;
18170;SDS011;9210;48.358;10.902;2022-12-29T15:11:21;2.47;;;1.20;;
18170;SDS011;9210;48.358;10.902;2022-12-29T15:13:50;2.20;;;1.03;;
18170;SDS011;9210;48.358;10.902;2022-12-29T15:16:22;5.97;;;1.10;;
18170;SDS011;9210;48.358;10.902;2022-12-29T15:18:52;1.47;;;1.00;;
18170;SDS011;9210;48.358;10.902;2022-12-29T15:21:22;2.00;;;1.00;;
18170;SDS011;9210;48.358;10.902;2022-12-29T15:23:52;2.27;;;1.17;;
18170;SDS011;9210;48.358;10.902;2022-12-29T15:26:20;3.27;;;1.17;;
18170;SDS011;9210;48.358;10.902;2022-12-29T15:28:50;3.67;;;1.10;;
18170;SDS011;9210;48.358;10.902;2022-12-29T15:31:19;6.17;;;1.20;;
18170;SDS011;9210;48.358;10.902;2022-12-29T15:34:03;4.93;;;1.57;;
18170;SDS011;9210;48.358;10.902;2022-12-29T15:36:37;3.23;;;1.20;;
18170;SDS011;9210;48.358;10.902;2022-12-29T15:39:17;3.27;;;1.27;;
18170;SDS011;9210;48.358;10.902;2022-12-29T15:41:47;2.90;;;1.40;;
18170;SDS011;9210;48.358;10.902;2022-12-29T15:44:28;3.50;;;1.20;;
18170;SDS011;9210;48.358;10.902;2022-12-29T15:46:57;3.37;;;1.20;;